Time;durP1;ratioP1;P1;durP2;ratioP2;P2;SDS_P1;SDS_P2;PMS_P1;PMS_P2;Temp;Humidity;BMP_temperature;BMP_pressure;BME280_temperature;BME280_humidity;BME280_pressure;Samples;Min_cycle;Max_cycle;Signal;HPM_P1;HPM_P2
2024/02/01 00:01:47;;;;;;;23.15;12.95;;;;;;;;;;5026073;28;20186;-75
2024/02/01 00:04:13;;;;;;;27.50;14.50;;;;;;;;;;5029980;28;20244;-75
2024/02/01 00:06:40;;;;;;;22.05;13.43;;;;;;;;;;5032289;28;20243;-75
2024/02/01 00:09:05;;;;;;;23.85;13.68;;;;;;;;;;5032660;28;20189;-75
2024/02/01 00:11:31;;;;;;;23.45;13.98;;;;;;;;;;5038587;28;20250;-76
2024/02/01 00:13:56;;;;;;;24.20;14.10;;;;;;;;;;5023299;28;20236;-78
2024/02/01 00:16:22;;;;;;;21.65;13.93;;;;;;;;;;5029181;28;20607;-75
2024/02/01 00:18:48;;;;;;;23.08;14.05;;;;;;;;;;5056693;28;20205;-75
2024/02/01 00:21:14;;;;;;;25.70;14.52;;;;;;;;;;5046222;28;20232;-77
2024/02/01 00:23:39;;;;;;;23.88;14.23;;;;;;;;;;5037351;28;20226;-76
2024/02/01 00:26:05;;;;;;;25.25;14.85;;;;;;;;;;5035990;28;20248;-76
2024/02/01 00:28:31;;;;;;;23.40;13.75;;;;;;;;;;5026072;28;20204;-76
2024/02/01 00:30:56;;;;;;;25.77;15.52;;;;;;;;;;5027277;28;20716;-77
2024/02/01 00:33:22;;;;;;;21.35;14.98;;;;;;;;;;5030175;28;20194;-77
2024/02/01 00:35:47;;;;;;;28.58;15.98;;;;;;;;;;5038776;28;20703;-76
2024/02/01 00:38:13;;;;;;;25.08;15.63;;;;;;;;;;5053645;28;20605;-75
2024/02/01 00:40:38;;;;;;;24.10;15.93;;;;;;;;;;5030245;28;20197;-74
2024/02/01 00:43:03;;;;;;;25.77;16.05;;;;;;;;;;5031006;28;20610;-75
2024/02/01 00:45:29;;;;;;;25.02;16.92;;;;;;;;;;5037452;28;20458;-75
2024/02/01 00:47:54;;;;;;;27.63;16.70;;;;;;;;;;5050232;28;20216;-76
2024/02/01 00:50:20;;;;;;;28.90;16.17;;;;;;;;;;5051004;28;20264;-75
2024/02/01 00:52:46;;;;;;;25.60;16.58;;;;;;;;;;5045622;28;20286;-75
2024/02/01 00:55:12;;;;;;;26.15;15.35;;;;;;;;;;5048118;28;20224;-74
2024/02/01 00:57:37;;;;;;;20.77;15.13;;;;;;;;;;5030590;28;20723;-75
2024/02/01 01:00:04;;;;;;;22.75;15.00;;;;;;;;;;5039573;28;20189;-74
2024/02/01 01:02:29;;;;;;;27.67;16.75;;;;;;;;;;5029750;28;20195;-75
2024/02/01 01:04:55;;;;;;;25.83;16.15;;;;;;;;;;5042001;28;20661;-75
2024/02/01 01:07:20;;;;;;;22.38;16.23;;;;;;;;;;5029843;28;20564;-74
2024/02/01 01:09:46;;;;;;;25.23;16.40;;;;;;;;;;5035110;28;20327;-75
2024/02/01 01:12:11;;;;;;;23.50;16.13;;;;;;;;;;5039959;28;20189;-74
2024/02/01 01:14:37;;;;;;;23.10;16.63;;;;;;;;;;5040541;28;20301;-75
2024/02/01 01:17:02;;;;;;;28.90;17.08;;;;;;;;;;5038301;28;20237;-75
2024/02/01 01:19:28;;;;;;;28.35;17.20;;;;;;;;;;5021848;28;20209;-75
2024/02/01 01:21:53;;;;;;;24.85;16.42;;;;;;;;;;5030955;28;20674;-74
2024/02/01 01:24:19;;;;;;;25.23;16.17;;;;;;;;;;5045759;28;20578;-74
2024/02/01 01:26:44;;;;;;;20.83;15.75;;;;;;;;;;5043254;28;20257;-74
2024/02/01 01:29:10;;;;;;;23.10;16.67;;;;;;;;;;5011277;28;20266;-74
2024/02/01 01:31:35;;;;;;;24.58;17.15;;;;;;;;;;5045085;28;20188;-74
2024/02/01 01:34:01;;;;;;;21.75;15.98;;;;;;;;;;5032201;28;20185;-75
2024/02/01 01:36:26;;;;;;;25.40;16.65;;;;;;;;;;5047738;28;20213;-74
2024/02/01 01:38:51;;;;;;;21.40;16.20;;;;;;;;;;5032842;28;20680;-74
2024/02/01 01:41:17;;;;;;;21.05;15.25;;;;;;;;;;5033111;28;20190;-75
2024/02/01 01:43:43;;;;;;;23.08;15.05;;;;;;;;;;5031506;28;20186;-79
2024/02/01 01:46:08;;;;;;;23.17;16.25;;;;;;;;;;5040845;28;20251;-75
2024/02/01 01:48:34;;;;;;;24.70;16.40;;;;;;;;;;5033162;28;20637;-74
2024/02/01 01:51:00;;;;;;;22.48;16.77;;;;;;;;;;5047441;28;20249;-74
2024/02/01 01:53:27;;;;;;;24.05;16.17;;;;;;;;;;5045501;28;20261;-74
2024/02/01 01:55:54;;;;;;;22.85;16.05;;;;;;;;;;5038628;28;20218;-74
2024/02/01 01:58:21;;;;;;;21.42;15.35;;;;;;;;;;5028328;28;20717;-74
2024/02/01 02:00:47;;;;;;;22.58;16.63;;;;;;;;;;5043289;28;20193;-74
2024/02/01 02:03:13;;;;;;;23.52;16.65;;;;;;;;;;5051241;28;20193;-74
2024/02/01 02:05:39;;;;;;;25.17;15.93;;;;;;;;;;5036781;28;20273;-74
2024/02/01 02:08:04;;;;;;;24.05;16.27;;;;;;;;;;5029276;28;20280;-74
2024/02/01 02:10:30;;;;;;;23.35;16.15;;;;;;;;;;5046769;28;20182;-74
2024/02/01 02:12:55;;;;;;;24.40;16.30;;;;;;;;;;5052567;28;20230;-74
2024/02/01 02:15:21;;;;;;;20.17;15.45;;;;;;;;;;5014035;28;20304;-74
2024/02/01 02:17:47;;;;;;;22.65;16.10;;;;;;;;;;5040611;28;20649;-75
2024/02/01 02:20:17;;;;;;;23.48;16.80;;;;;;;;;;5035385;28;20193;-75
2024/02/01 02:22:46;;;;;;;25.35;16.27;;;;;;;;;;5020280;28;20217;-75
2024/02/01 02:25:15;;;;;;;23.63;16.35;;;;;;;;;;5026218;28;20174;-75
2024/02/01 02:27:42;;;;;;;26.23;16.30;;;;;;;;;;5030899;28;20439;-74
2024/02/01 02:30:08;;;;;;;24.00;16.42;;;;;;;;;;5028863;28;20707;-74
2024/02/01 02:32:35;;;;;;;21.65;15.35;;;;;;;;;;5019153;28;20580;-74
2024/02/01 02:35:00;;;;;;;24.83;15.48;;;;;;;;;;5038886;28;20208;-74
2024/02/01 02:37:26;;;;;;;25.20;16.17;;;;;;;;;;5026090;28;20645;-74
2024/02/01 02:39:51;;;;;;;23.17;14.77;;;;;;;;;;5052113;28;20657;-74
2024/02/01 02:42:17;;;;;;;21.67;14.10;;;;;;;;;;5031882;28;20194;-74
2024/02/01 02:44:42;;;;;;;22.92;14.75;;;;;;;;;;5041441;28;20216;-74
2024/02/01 02:47:08;;;;;;;21.20;12.65;;;;;;;;;;5038731;28;20212;-74
2024/02/01 02:49:33;;;;;;;25.35;11.57;;;;;;;;;;5028868;28;20644;-74
2024/02/01 02:51:58;;;;;;;29.05;11.77;;;;;;;;;;5040609;28;20544;-74
2024/02/01 02:54:24;;;;;;;25.25;8.52;;;;;;;;;;5026011;28;20218;-73
2024/02/01 02:56:49;;;;;;;28.42;10.25;;;;;;;;;;5022090;28;20186;-74
2024/02/01 02:59:16;;;;;;;32.88;10.52;;;;;;;;;;5028770;28;20368;-74
2024/02/01 03:01:43;;;;;;;32.67;8.73;;;;;;;;;;5040222;28;20182;-74
2024/02/01 03:04:08;;;;;;;24.58;7.03;;;;;;;;;;5030329;28;20190;-74
2024/02/01 03:06:34;;;;;;;22.95;7.50;;;;;;;;;;5025964;28;20563;-74
2024/02/01 03:08:59;;;;;;;23.77;7.57;;;;;;;;;;5035782;28;20213;-74
2024/02/01 03:11:25;;;;;;;22.98;6.65;;;;;;;;;;5030665;28;20193;-74
2024/02/01 03:13:50;;;;;;;24.10;5.82;;;;;;;;;;5046884;28;20242;-74
2024/02/01 03:16:20;;;;;;;24.27;5.55;;;;;;;;;;5038504;28;20243;-74
2024/02/01 03:18:46;;;;;;;24.85;5.25;;;;;;;;;;5035341;28;20210;-74
2024/02/01 03:21:14;;;;;;;24.70;5.82;;;;;;;;;;5042689;28;20194;-73
2024/02/01 03:23:44;;;;;;;24.48;4.63;;;;;;;;;;5038932;28;20202;-74
2024/02/01 03:26:10;;;;;;;26.05;5.55;;;;;;;;;;5040285;28;20763;-74
2024/02/01 03:28:43;;;;;;;24.75;4.88;;;;;;;;;;5045648;28;20232;-74
2024/02/01 03:31:09;;;;;;;26.33;4.35;;;;;;;;;;5042090;28;20655;-74
2024/02/01 03:33:38;;;;;;;26.85;5.47;;;;;;;;;;5039611;28;20266;-74
2024/02/01 03:36:08;;;;;;;28.38;5.97;;;;;;;;;;5038892;28;20260;-73
2024/02/01 03:38:34;;;;;;;25.88;4.90;;;;;;;;;;5045373;28;20669;-73
2024/02/01 03:41:00;;;;;;;21.30;4.22;;;;;;;;;;5034138;28;20212;-73
2024/02/01 03:43:27;;;;;;;17.98;4.63;;;;;;;;;;5041069;28;20214;-73
2024/02/01 03:45:54;;;;;;;26.90;5.80;;;;;;;;;;5049196;28;20255;-73
2024/02/01 03:48:20;;;;;;;30.63;5.97;;;;;;;;;;5044249;28;20197;-73
2024/02/01 03:50:45;;;;;;;20.25;4.55;;;;;;;;;;5037442;28;20691;-73
2024/02/01 03:53:11;;;;;;;27.73;4.65;;;;;;;;;;5043532;28;20189;-74
2024/02/01 03:55:38;;;;;;;21.15;5.47;;;;;;;;;;5039939;28;20214;-73
2024/02/01 03:58:03;;;;;;;25.88;4.93;;;;;;;;;;5046450;28;20195;-73
2024/02/01 04:00:29;;;;;;;20.27;3.92;;;;;;;;;;5033018;28;20194;-73
2024/02/01 04:02:56;;;;;;;23.33;4.55;;;;;;;;;;5035866;28;20194;-73
2024/02/01 04:05:26;;;;;;;20.65;3.65;;;;;;;;;;5040562;28;20218;-74
2024/02/01 04:07:55;;;;;;;24.60;4.32;;;;;;;;;;5043671;28;20193;-73
2024/02/01 04:10:20;;;;;;;22.58;3.78;;;;;;;;;;5044173;28;20209;-73
2024/02/01 04:12:46;;;;;;;28.30;4.47;;;;;;;;;;5035107;28;20193;-73
2024/02/01 04:15:11;;;;;;;22.45;3.78;;;;;;;;;;5042785;28;20565;-73
2024/02/01 04:17:37;;;;;;;27.63;4.63;;;;;;;;;;5028607;28;20237;-73
2024/02/01 04:20:05;;;;;;;26.88;4.22;;;;;;;;;;5038040;28;20230;-73
2024/02/01 04:22:31;;;;;;;21.42;3.38;;;;;;;;;;5029800;28;20277;-73
2024/02/01 04:24:56;;;;;;;30.70;4.10;;;;;;;;;;5037374;28;20186;-74
2024/02/01 04:27:22;;;;;;;27.55;4.00;;;;;;;;;;5044179;28;20681;-73
2024/02/01 04:29:48;;;;;;;18.98;3.70;;;;;;;;;;5040019;28;20268;-73
2024/02/01 04:32:13;;;;;;;28.75;3.28;;;;;;;;;;5042378;28;20272;-73
2024/02/01 04:34:39;;;;;;;26.15;3.28;;;;;;;;;;5046944;28;20321;-73
2024/02/01 04:37:09;;;;;;;31.23;3.47;;;;;;;;;;5050747;28;20658;-73
2024/02/01 04:39:36;;;;;;;24.57;3.40;;;;;;;;;;5029076;28;20190;-73
2024/02/01 04:42:14;;;;;;;29.70;3.73;;;;;;;;;;5034081;28;20192;-73
2024/02/01 04:44:41;;;;;;;28.98;3.53;;;;;;;;;;5025959;28;21767;-73
2024/02/01 04:47:06;;;;;;;20.13;3.87;;;;;;;;;;5030146;28;20775;-73
2024/02/01 04:49:32;;;;;;;24.00;3.87;;;;;;;;;;5036351;28;20190;-73
2024/02/01 04:51:58;;;;;;;28.17;3.93;;;;;;;;;;5031360;28;20182;-73
2024/02/01 04:54:23;;;;;;;29.35;3.97;;;;;;;;;;5030758;28;20232;-73
2024/02/01 04:56:48;;;;;;;28.17;3.20;;;;;;;;;;5053972;28;20191;-73
2024/02/01 04:59:14;;;;;;;26.23;3.38;;;;;;;;;;5030804;28;20209;-73
2024/02/01 05:01:40;;;;;;;29.38;3.97;;;;;;;;;;5032496;28;20583;-73
2024/02/01 05:04:13;;;;;;;24.87;3.27;;;;;;;;;;5040320;28;20208;-73
2024/02/01 05:06:41;;;;;;;28.15;4.30;;;;;;;;;;5041587;28;20213;-72
2024/02/01 05:09:23;;;;;;;24.33;3.80;;;;;;;;;;5035183;28;20186;-72
2024/02/01 05:11:58;;;;;;;27.35;3.13;;;;;;;;;;5038022;28;20180;-72
2024/02/01 05:14:24;;;;;;;21.10;2.60;;;;;;;;;;5029804;28;20217;-73
2024/02/01 05:16:50;;;;;;;24.77;2.80;;;;;;;;;;5048517;28;20541;-73
2024/02/01 05:19:18;;;;;;;24.00;3.42;;;;;;;;;;5036266;28;20214;-73
2024/02/01 05:21:44;;;;;;;24.42;3.05;;;;;;;;;;5042588;28;20182;-73
2024/02/01 05:24:13;;;;;;;22.10;3.17;;;;;;;;;;5031286;28;20192;-73
2024/02/01 05:26:52;;;;;;;33.53;4.50;;;;;;;;;;5035861;28;20217;-72
2024/02/01 05:29:26;;;;;;;32.63;3.77;;;;;;;;;;5036932;28;20199;-72
2024/02/01 05:31:53;;;;;;;26.83;3.60;;;;;;;;;;5035621;28;20186;-72
2024/02/01 05:34:20;;;;;;;25.10;3.63;;;;;;;;;;5035996;28;20201;-72
2024/02/01 05:36:52;;;;;;;17.57;2.90;;;;;;;;;;5042406;28;20192;-72
2024/02/01 05:39:24;;;;;;;23.27;2.80;;;;;;;;;;5046458;28;20189;-72
2024/02/01 05:42:06;;;;;;;36.27;3.83;;;;;;;;;;5044639;28;20202;-72
2024/02/01 05:44:32;;;;;;;23.77;3.37;;;;;;;;;;5048706;28;20243;-72
2024/02/01 05:46:57;;;;;;;26.60;3.27;;;;;;;;;;5047819;28;20193;-72
2024/02/01 05:49:30;;;;;;;39.67;4.10;;;;;;;;;;5028909;28;20217;-72
2024/02/01 05:52:02;;;;;;;24.50;3.03;;;;;;;;;;5032433;28;20178;-72
2024/02/01 05:54:28;;;;;;;26.57;2.87;;;;;;;;;;5030563;28;20248;-73
2024/02/01 05:56:54;;;;;;;24.73;3.27;;;;;;;;;;5048716;28;20182;-74
2024/02/01 05:59:20;;;;;;;28.17;3.60;;;;;;;;;;5048013;28;20193;-74
2024/02/01 06:01:46;;;;;;;22.57;2.97;;;;;;;;;;5031721;28;20181;-73
2024/02/01 06:04:13;;;;;;;29.37;4.07;;;;;;;;;;5041057;28;20181;-75
2024/02/01 06:06:43;;;;;;;19.90;3.03;;;;;;;;;;5036928;28;20542;-73
2024/02/01 06:09:11;;;;;;;20.97;2.97;;;;;;;;;;5047176;28;20308;-74
2024/02/01 06:11:44;;;;;;;28.20;3.77;;;;;;;;;;5032747;28;20565;-74
2024/02/01 06:14:10;;;;;;;23.97;3.10;;;;;;;;;;5032774;28;20252;-73
2024/02/01 06:16:35;;;;;;;22.50;2.83;;;;;;;;;;5039192;28;20194;-73
2024/02/01 06:19:02;;;;;;;22.00;3.70;;;;;;;;;;5039261;28;20568;-73
2024/02/01 06:21:28;;;;;;;27.70;3.87;;;;;;;;;;5043409;28;20200;-73
2024/02/01 06:23:54;;;;;;;23.87;3.67;;;;;;;;;;5032503;28;20634;-73
2024/02/01 06:26:27;;;;;;;36.90;6.73;;;;;;;;;;5039710;28;20377;-74
2024/02/01 06:28:56;;;;;;;23.03;3.10;;;;;;;;;;5033667;28;20178;-74
2024/02/01 06:31:24;;;;;;;29.07;3.07;;;;;;;;;;5037356;28;20189;-74
2024/02/01 06:33:51;;;;;;;19.80;3.47;;;;;;;;;;5035237;28;20224;-74
2024/02/01 06:36:19;;;;;;;36.03;4.93;;;;;;;;;;5033524;28;20708;-74
2024/02/01 06:42:14;;;;;;;32.57;3.77;;;;;;;;;;5043473;28;20709;-74
2024/02/01 06:44:24;;;;;;;17.40;3.37;;;;;;;;;;5038435;28;20232;-74
2024/02/01 06:49:39;;;;;;;28.23;3.13;;;;;;;;;;5040557;28;20183;-74
2024/02/01 07:03:01;;;;;;;34.00;3.43;;;;;;;;;;5043595;28;20209;-74
2024/02/01 07:05:58;;;;;;;30.90;4.13;;;;;;;;;;5031521;28;20240;-73
2024/02/01 07:13:47;;;;;;;28.80;3.10;;;;;;;;;;5038371;28;20579;-73
2024/02/01 07:16:21;;;;;;;32.20;4.30;;;;;;;;;;5040031;28;20560;-74
2024/02/01 07:19:53;;;;;;;25.33;2.90;;;;;;;;;;5039295;28;20675;-73
2024/02/01 07:22:00;;;;;;;27.00;3.13;;;;;;;;;;5044632;28;20280;-74
2024/02/01 07:24:46;;;;;;;17.80;3.17;;;;;;;;;;5044950;28;20662;-74
2024/02/01 07:57:36;;;;;;;32.60;4.67;;;;;;;;;;5047489;28;20545;-73
2024/02/01 08:00:02;;;;;;;31.67;4.27;;;;;;;;;;5045136;28;20186;-73
2024/02/01 08:07:56;;;;;;;27.70;4.33;;;;;;;;;;5039804;28;20193;-74
2024/02/01 08:10:22;;;;;;;23.70;3.63;;;;;;;;;;5044318;28;20190;-74
2024/02/01 08:12:48;;;;;;;30.37;3.67;;;;;;;;;;5037932;28;20935;-73
2024/02/01 08:15:18;;;;;;;20.03;4.00;;;;;;;;;;5047886;28;20290;-73
2024/02/01 08:17:48;;;;;;;32.03;3.43;;;;;;;;;;5034517;28;20225;-73
2024/02/01 08:20:14;;;;;;;18.10;3.20;;;;;;;;;;5031817;28;20616;-73
2024/02/01 08:22:41;;;;;;;32.07;3.87;;;;;;;;;;5040131;28;20192;-73
2024/02/01 08:25:08;;;;;;;23.13;3.17;;;;;;;;;;5034950;28;20198;-73
2024/02/01 08:27:34;;;;;;;26.13;4.03;;;;;;;;;;5043289;28;20670;-75
2024/02/01 08:30:12;;;;;;;25.47;3.40;;;;;;;;;;5036474;28;20189;-74
2024/02/01 08:32:44;;;;;;;34.03;4.33;;;;;;;;;;5032877;28;20329;-73
2024/02/01 08:35:10;;;;;;;25.77;3.47;;;;;;;;;;5040688;28;20225;-73
2024/02/01 08:37:39;;;;;;;27.87;3.53;;;;;;;;;;5044476;28;20633;-73
2024/02/01 08:40:16;;;;;;;27.37;3.60;;;;;;;;;;5035690;28;20650;-73
2024/02/01 08:42:44;;;;;;;25.37;4.40;;;;;;;;;;5044272;28;20535;-73
2024/02/01 08:45:11;;;;;;;27.20;4.70;;;;;;;;;;5048612;28;20276;-73
2024/02/01 08:47:37;;;;;;;25.00;3.77;;;;;;;;;;5034316;28;20211;-74
2024/02/01 08:50:06;;;;;;;26.87;4.07;;;;;;;;;;5041386;28;20544;-73
2024/02/01 08:52:34;;;;;;;27.60;5.23;;;;;;;;;;5031663;28;20194;-73
2024/02/01 08:55:00;;;;;;;30.83;4.10;;;;;;;;;;5038601;28;20712;-74
2024/02/01 08:57:26;;;;;;;26.33;3.70;;;;;;;;;;5038296;28;20190;-73
2024/02/01 08:59:52;;;;;;;33.43;4.00;;;;;;;;;;5042354;28;20191;-73
2024/02/01 09:02:18;;;;;;;31.50;5.07;;;;;;;;;;5046797;28;20198;-73
2024/02/01 09:04:46;;;;;;;29.10;4.00;;;;;;;;;;5042597;28;20296;-74
2024/02/01 09:07:12;;;;;;;28.70;3.60;;;;;;;;;;5045991;28;20224;-74
2024/02/01 09:09:39;;;;;;;28.40;3.37;;;;;;;;;;5034995;28;20193;-73
2024/02/01 09:12:05;;;;;;;31.53;3.57;;;;;;;;;;5045015;28;20190;-73
2024/02/01 09:14:34;;;;;;;26.50;3.47;;;;;;;;;;5040556;28;20206;-73
2024/02/01 09:16:59;;;;;;;29.93;3.53;;;;;;;;;;5040724;28;20222;-74
2024/02/01 09:19:25;;;;;;;36.37;4.03;;;;;;;;;;5029390;28;20228;-74
2024/02/01 09:21:51;;;;;;;21.77;3.30;;;;;;;;;;5042685;28;20609;-73
2024/02/01 09:24:17;;;;;;;34.43;4.07;;;;;;;;;;5032073;28;20285;-73
2024/02/01 09:26:44;;;;;;;37.00;4.07;;;;;;;;;;5047179;28;20185;-73
2024/02/01 09:29:12;;;;;;;36.70;4.13;;;;;;;;;;5017307;28;20198;-73
2024/02/01 09:31:38;;;;;;;29.67;3.67;;;;;;;;;;5040961;28;20192;-73
2024/02/01 09:34:05;;;;;;;29.60;4.03;;;;;;;;;;5041058;28;20193;-73
2024/02/01 09:36:31;;;;;;;25.87;3.60;;;;;;;;;;5044551;28;20202;-74
2024/02/01 09:38:56;;;;;;;22.87;4.10;;;;;;;;;;5030741;28;20183;-74
2024/02/01 09:41:22;;;;;;;29.00;3.53;;;;;;;;;;5033177;28;20197;-74
2024/02/01 09:43:52;;;;;;;33.43;5.43;;;;;;;;;;5015784;28;20200;-74
2024/02/01 09:46:18;;;;;;;21.67;4.27;;;;;;;;;;5035789;28;20216;-73
2024/02/01 09:48:44;;;;;;;26.83;4.20;;;;;;;;;;5042489;28;20374;-74
2024/02/01 09:51:19;;;;;;;32.67;4.50;;;;;;;;;;5035451;28;20206;-74
2024/02/01 09:53:46;;;;;;;30.53;3.87;;;;;;;;;;5014988;28;20272;-74
2024/02/01 09:56:12;;;;;;;30.07;3.80;;;;;;;;;;5041802;28;20225;-74
2024/02/01 09:58:39;;;;;;;29.97;3.40;;;;;;;;;;5038235;28;20208;-75
2024/02/01 10:01:05;;;;;;;27.60;3.30;;;;;;;;;;5046426;28;20185;-74
2024/02/01 10:03:30;;;;;;;36.17;4.13;;;;;;;;;;5040400;28;20189;-74
2024/02/01 10:05:56;;;;;;;22.90;3.50;;;;;;;;;;5042986;28;20595;-74
2024/02/01 10:08:25;;;;;;;26.77;4.30;;;;;;;;;;5044944;28;20177;-74
2024/02/01 10:10:51;;;;;;;26.10;3.90;;;;;;;;;;5033453;28;20257;-73
2024/02/01 10:13:18;;;;;;;31.13;3.57;;;;;;;;;;5042247;28;20264;-73
2024/02/01 10:15:47;;;;;;;33.73;3.70;;;;;;;;;;5036291;28;20193;-73
2024/02/01 10:18:17;;;;;;;27.83;4.03;;;;;;;;;;5038476;28;20843;-74
2024/02/01 10:20:51;;;;;;;31.30;3.47;;;;;;;;;;5027067;28;20765;-74
2024/02/01 10:23:19;;;;;;;29.63;4.40;;;;;;;;;;5029482;28;20290;-73
2024/02/01 10:25:52;;;;;;;24.13;3.77;;;;;;;;;;5030247;28;20224;-73
2024/02/01 10:28:18;;;;;;;25.73;4.53;;;;;;;;;;5038343;28;20485;-73
2024/02/01 10:30:45;;;;;;;26.67;4.63;;;;;;;;;;5036975;28;20536;-74
2024/02/01 10:33:17;;;;;;;25.07;4.97;;;;;;;;;;5022222;28;20239;-74
2024/02/01 10:35:43;;;;;;;28.02;4.60;;;;;;;;;;5033752;28;20213;-74
2024/02/01 10:38:13;;;;;;;29.23;5.50;;;;;;;;;;5042884;28;20276;-74
2024/02/01 10:40:52;;;;;;;28.83;4.75;;;;;;;;;;5049102;28;20185;-74
2024/02/01 10:43:19;;;;;;;37.80;4.68;;;;;;;;;;5025257;28;20214;-74
2024/02/01 10:45:50;;;;;;;35.15;4.93;;;;;;;;;;5035249;28;20634;-74
2024/02/01 10:48:18;;;;;;;26.80;3.93;;;;;;;;;;5052535;28;20189;-75
2024/02/01 10:50:44;;;;;;;33.70;4.63;;;;;;;;;;5044211;28;20189;-74
2024/02/01 10:53:11;;;;;;;25.63;4.20;;;;;;;;;;5037775;28;20193;-75
2024/02/01 10:55:40;;;;;;;31.17;4.50;;;;;;;;;;5048297;28;20288;-75
2024/02/01 10:58:13;;;;;;;27.02;4.20;;;;;;;;;;5040531;28;20197;-74
2024/02/01 11:00:43;;;;;;;27.75;4.25;;;;;;;;;;5047864;28;20181;-74
2024/02/01 11:03:11;;;;;;;26.42;4.55;;;;;;;;;;5032206;28;20213;-74
2024/02/01 11:05:38;;;;;;;32.97;4.63;;;;;;;;;;5037351;28;20186;-73
2024/02/01 11:08:13;;;;;;;30.38;5.57;;;;;;;;;;5027599;28;20193;-73
2024/02/01 11:10:38;;;;;;;24.20;3.85;;;;;;;;;;5036275;28;20185;-74
2024/02/01 11:13:04;;;;;;;26.63;4.15;;;;;;;;;;5032749;28;20196;-73
2024/02/01 11:15:29;;;;;;;29.38;4.07;;;;;;;;;;5041417;28;20213;-73
2024/02/01 11:17:59;;;;;;;34.55;4.85;;;;;;;;;;5040231;28;20704;-73
2024/02/01 11:20:25;;;;;;;26.20;4.03;;;;;;;;;;5041353;28;20265;-73
2024/02/01 11:22:57;;;;;;;32.72;4.38;;;;;;;;;;5034000;28;20272;-74
2024/02/01 11:25:27;;;;;;;27.00;4.47;;;;;;;;;;5043821;28;20670;-73
2024/02/01 11:27:53;;;;;;;25.30;3.50;;;;;;;;;;5035469;28;20185;-74
2024/02/01 11:30:28;;;;;;;31.60;5.05;;;;;;;;;;5034643;28;20185;-73
2024/02/01 11:32:55;;;;;;;35.88;4.10;;;;;;;;;;5033381;28;20552;-73
2024/02/01 11:35:22;;;;;;;28.23;4.50;;;;;;;;;;5045432;28;20271;-73
2024/02/01 11:38:00;;;;;;;26.73;4.82;;;;;;;;;;5042365;28;20196;-73
2024/02/01 11:40:26;;;;;;;26.13;4.63;;;;;;;;;;5047999;28;20213;-72
2024/02/01 11:42:51;;;;;;;29.92;4.25;;;;;;;;;;5044147;28;20220;-73
2024/02/01 11:45:17;;;;;;;25.67;4.43;;;;;;;;;;5049153;28;20243;-73
2024/02/01 11:47:42;;;;;;;29.17;4.95;;;;;;;;;;5027281;28;20204;-73
2024/02/01 11:50:08;;;;;;;31.23;4.57;;;;;;;;;;5047538;28;20209;-73
2024/02/01 11:52:52;;;;;;;29.48;4.75;;;;;;;;;;5034760;28;20185;-73
2024/02/01 11:55:18;;;;;;;28.17;3.67;;;;;;;;;;5041289;28;20513;-73
2024/02/01 11:57:48;;;;;;;26.10;5.05;;;;;;;;;;5035486;28;20197;-73
2024/02/01 12:00:20;;;;;;;41.17;4.82;;;;;;;;;;5042005;28;20566;-73
2024/02/01 12:02:46;;;;;;;21.67;3.47;;;;;;;;;;5029258;28;20200;-73
2024/02/01 12:05:12;;;;;;;33.58;4.30;;;;;;;;;;5030129;28;20194;-74
2024/02/01 12:07:41;;;;;;;32.50;4.00;;;;;;;;;;5041325;28;20186;-73
2024/02/01 12:10:11;;;;;;;27.52;5.30;;;;;;;;;;5035998;28;20224;-73
2024/02/01 12:12:37;;;;;;;34.47;3.97;;;;;;;;;;5035595;28;20190;-73
2024/02/01 12:15:04;;;;;;;30.00;3.75;;;;;;;;;;5051138;28;20678;-73
2024/02/01 12:17:42;;;;;;;26.27;4.15;;;;;;;;;;5041836;28;20226;-74
2024/02/01 12:20:17;;;;;;;35.03;4.57;;;;;;;;;;5044841;28;20688;-75
2024/02/01 12:22:48;;;;;;;25.92;3.83;;;;;;;;;;5044404;28;20477;-74
2024/02/01 12:25:17;;;;;;;23.95;4.15;;;;;;;;;;5029596;28;20187;-73
2024/02/01 12:27:45;;;;;;;26.05;3.85;;;;;;;;;;5030790;28;20277;-73
2024/02/01 12:30:14;;;;;;;33.47;4.70;;;;;;;;;;5039148;28;20193;-73
2024/02/01 12:32:44;;;;;;;21.25;3.15;;;;;;;;;;5030838;28;20269;-73
2024/02/01 12:35:17;;;;;;;29.42;4.05;;;;;;;;;;5036538;28;20229;-74
2024/02/01 12:37:44;;;;;;;27.83;4.00;;;;;;;;;;5039470;28;20216;-73
2024/02/01 12:40:19;;;;;;;32.08;4.80;;;;;;;;;;5033442;28;20281;-73
2024/02/01 12:42:48;;;;;;;22.50;4.28;;;;;;;;;;5039463;28;20197;-73
2024/02/01 12:45:20;;;;;;;19.17;3.85;;;;;;;;;;5027966;28;20577;-73
2024/02/01 12:47:50;;;;;;;25.63;4.13;;;;;;;;;;5030093;28;20197;-73
2024/02/01 12:50:16;;;;;;;25.27;4.60;;;;;;;;;;5031011;28;20262;-73
2024/02/01 12:52:43;;;;;;;26.40;3.97;;;;;;;;;;5042289;28;20586;-73
2024/02/01 12:55:09;;;;;;;35.35;3.97;;;;;;;;;;5035434;28;20578;-73
2024/02/01 12:57:34;;;;;;;31.40;3.70;;;;;;;;;;5035994;28;20178;-75
2024/02/01 13:00:00;;;;;;;23.90;3.70;;;;;;;;;;5047157;28;20288;-74
2024/02/01 13:02:26;;;;;;;32.55;4.57;;;;;;;;;;5044156;28;20197;-73
2024/02/01 13:04:52;;;;;;;31.23;4.88;;;;;;;;;;5043783;28;20208;-74
2024/02/01 13:07:19;;;;;;;24.85;3.53;;;;;;;;;;5031137;28;20194;-73
2024/02/01 13:09:44;;;;;;;21.02;3.55;;;;;;;;;;5048457;28;20185;-74
2024/02/01 13:12:18;;;;;;;29.00;4.55;;;;;;;;;;5043654;28;20205;-74
2024/02/01 13:15:00;;;;;;;20.98;3.65;;;;;;;;;;5042607;28;20204;-74
2024/02/01 13:17:35;;;;;;;28.80;4.05;;;;;;;;;;5030013;28;20233;-74
2024/02/01 13:20:03;;;;;;;27.75;3.53;;;;;;;;;;5044848;28;20235;-73
2024/02/01 13:22:29;;;;;;;30.55;4.60;;;;;;;;;;5041957;28;20193;-73
2024/02/01 13:24:55;;;;;;;26.52;3.38;;;;;;;;;;5030429;28;20182;-73
2024/02/01 13:27:20;;;;;;;25.83;4.30;;;;;;;;;;5047508;28;20193;-73
2024/02/01 13:29:46;;;;;;;27.55;3.40;;;;;;;;;;5046986;28;20547;-73
2024/02/01 13:32:14;;;;;;;27.00;4.43;;;;;;;;;;5041778;28;20193;-73
2024/02/01 13:34:40;;;;;;;22.05;3.85;;;;;;;;;;5043365;28;20220;-73
2024/02/01 13:37:10;;;;;;;26.35;4.18;;;;;;;;;;5042196;28;20268;-72
2024/02/01 13:39:42;;;;;;;29.40;4.90;;;;;;;;;;5047515;28;20233;-73
2024/02/01 13:42:08;;;;;;;28.80;4.30;;;;;;;;;;5043309;28;20283;-73
2024/02/01 13:44:34;;;;;;;26.75;4.25;;;;;;;;;;5030543;28;20185;-73
2024/02/01 13:47:05;;;;;;;31.77;4.10;;;;;;;;;;5042586;28;20617;-73
2024/02/01 13:49:31;;;;;;;27.75;4.20;;;;;;;;;;5034988;28;20193;-73
2024/02/01 13:51:57;;;;;;;24.77;4.10;;;;;;;;;;5043273;28;20196;-72
2024/02/01 13:54:22;;;;;;;29.65;4.38;;;;;;;;;;5042896;28;20185;-73
2024/02/01 13:56:48;;;;;;;23.77;4.10;;;;;;;;;;5036399;28;20186;-73
2024/02/01 13:59:13;;;;;;;23.27;3.85;;;;;;;;;;5028171;28;20236;-73
2024/02/01 14:01:39;;;;;;;25.83;3.90;;;;;;;;;;5036584;28;20205;-72
2024/02/01 14:04:04;;;;;;;22.33;3.60;;;;;;;;;;5047209;28;20178;-73
2024/02/01 14:06:30;;;;;;;23.15;3.53;;;;;;;;;;5047366;28;20288;-73
2024/02/01 14:08:56;;;;;;;25.75;3.33;;;;;;;;;;5040127;28;20187;-73
2024/02/01 14:11:22;;;;;;;25.73;3.40;;;;;;;;;;5030326;28;20240;-72
2024/02/01 14:13:47;;;;;;;25.67;3.75;;;;;;;;;;5031386;28;20217;-73
2024/02/01 14:16:13;;;;;;;26.77;3.72;;;;;;;;;;5032529;28;20555;-73
2024/02/01 14:18:38;;;;;;;17.30;3.80;;;;;;;;;;5042547;28;20226;-72
2024/02/01 14:21:07;;;;;;;23.58;3.63;;;;;;;;;;5035758;28;20186;-73
2024/02/01 14:23:32;;;;;;;18.80;3.20;;;;;;;;;;5036814;28;20181;-72
2024/02/01 14:25:58;;;;;;;24.50;3.53;;;;;;;;;;5046116;28;20714;-72
2024/02/01 14:28:23;;;;;;;24.13;3.45;;;;;;;;;;5043666;28;20193;-72
2024/02/01 14:30:49;;;;;;;22.38;3.92;;;;;;;;;;5037196;28;20221;-73
2024/02/01 14:33:14;;;;;;;25.00;3.47;;;;;;;;;;5053089;28;20193;-73
2024/02/01 14:35:40;;;;;;;25.20;3.58;;;;;;;;;;5040397;28;20576;-73
2024/02/01 14:38:05;;;;;;;23.90;3.10;;;;;;;;;;5039842;28;20301;-73
2024/02/01 14:40:31;;;;;;;20.20;3.50;;;;;;;;;;5034840;28;20719;-72
2024/02/01 14:42:58;;;;;;;22.90;3.70;;;;;;;;;;5031825;28;20186;-72
2024/02/01 14:45:24;;;;;;;25.60;4.07;;;;;;;;;;5037993;28;20231;-72
2024/02/01 14:47:49;;;;;;;25.17;4.07;;;;;;;;;;5038965;28;20568;-72
2024/02/01 14:50:17;;;;;;;24.40;3.40;;;;;;;;;;5032943;28;20273;-73
2024/02/01 14:52:42;;;;;;;26.65;3.97;;;;;;;;;;5036513;28;20200;-73
2024/02/01 14:55:09;;;;;;;20.60;3.22;;;;;;;;;;5027583;28;20222;-73
2024/02/01 14:57:35;;;;;;;25.80;3.70;;;;;;;;;;5047205;28;20229;-73
2024/02/01 15:00:01;;;;;;;20.70;3.42;;;;;;;;;;5035429;28;20240;-73
2024/02/01 15:02:26;;;;;;;22.67;3.58;;;;;;;;;;5045653;28;20197;-72
2024/02/01 15:04:56;;;;;;;25.77;4.03;;;;;;;;;;5046930;28;20271;-72
2024/02/01 15:07:22;;;;;;;18.75;3.30;;;;;;;;;;5026944;28;20186;-72
2024/02/01 15:09:48;;;;;;;32.78;5.05;;;;;;;;;;5044162;28;20185;-72
2024/02/01 15:12:14;;;;;;;23.63;4.00;;;;;;;;;;5038388;28;20642;-72
2024/02/01 15:14:39;;;;;;;24.73;3.67;;;;;;;;;;5044765;28;20241;-73
2024/02/01 15:17:06;;;;;;;26.42;4.13;;;;;;;;;;5038964;28;20225;-72
2024/02/01 15:19:32;;;;;;;35.38;4.10;;;;;;;;;;5038810;28;20216;-72
2024/02/01 15:21:59;;;;;;;32.45;3.92;;;;;;;;;;5039514;28;20189;-72
2024/02/01 15:24:26;;;;;;;24.80;3.85;;;;;;;;;;5052943;28;20200;-72
2024/02/01 15:26:52;;;;;;;30.33;4.70;;;;;;;;;;5031529;28;20190;-72